createdAt,value
2022-10-30T00:04:01.437Z,2.35
2022-10-30T00:06:34.175Z,2.70
2022-10-30T00:09:04.486Z,2.50
2022-10-30T00:11:34.333Z,2.53
2022-10-30T00:14:04.773Z,2.80
2022-10-30T00:16:34.806Z,2.60
2022-10-30T00:19:05.064Z,2.70
2022-10-30T00:21:37.080Z,2.60
2022-10-30T00:24:10.927Z,2.60
2022-10-30T00:26:41.414Z,2.60
2022-10-30T00:31:58.635Z,2.80
2022-10-30T00:34:29.060Z,2.78
2022-10-30T00:37:01.452Z,2.85
2022-10-30T00:39:31.694Z,2.78
2022-10-30T00:42:02.208Z,2.80
2022-10-30T00:47:36.688Z,2.88
2022-10-30T00:50:14.886Z,2.50
2022-10-30T00:52:54.356Z,2.58
2022-10-30T00:55:30.552Z,2.75
2022-10-30T00:58:05.591Z,2.55
2022-10-30T01:00:38.446Z,2.70
2022-10-30T01:03:08.566Z,2.80
2022-10-30T01:05:39.443Z,2.63
2022-10-30T01:08:12.175Z,2.60
2022-10-30T01:10:43.293Z,2.60
2022-10-30T01:13:14.446Z,2.90
2022-10-30T01:16:02.376Z,2.78
2022-10-30T01:18:49.444Z,2.38
2022-10-30T01:21:43.813Z,2.60
2022-10-30T01:30:54.113Z,2.50
2022-10-30T01:33:39.707Z,2.42
2022-10-30T01:36:20.854Z,2.40
2022-10-30T01:38:56.149Z,2.42
2022-10-30T01:41:28.597Z,2.47
2022-10-30T01:44:05.131Z,2.60
2022-10-30T01:47:16.246Z,2.55
2022-10-30T01:50:12.922Z,2.47
2022-10-30T01:52:54.266Z,2.50
2022-10-30T01:55:40.340Z,2.42
2022-10-30T01:58:22.687Z,2.30
2022-10-30T02:03:49.232Z,2.50
2022-10-30T02:06:20.020Z,2.42
2022-10-30T02:08:50.613Z,2.65
2022-10-30T02:11:21.376Z,2.50
2022-10-30T02:13:57.521Z,2.92
2022-10-30T02:19:15.311Z,2.70
2022-10-30T02:21:47.854Z,2.47
2022-10-30T02:27:05.291Z,2.65
2022-10-30T02:29:35.341Z,2.78
2022-10-30T02:32:05.865Z,2.65
2022-10-30T02:34:37.246Z,2.40
2022-10-30T02:37:09.862Z,2.45
2022-10-30T02:39:40.163Z,2.45
2022-10-30T02:42:10.668Z,2.38
2022-10-30T02:44:41.105Z,2.70
2022-10-30T02:47:11.011Z,2.70
2022-10-30T02:49:41.249Z,2.67
2022-10-30T02:55:00.963Z,2.78
2022-10-30T02:57:31.437Z,2.42
2022-10-30T03:00:01.937Z,2.78
2022-10-30T03:02:32.408Z,2.30
2022-10-30T03:05:02.356Z,2.47
2022-10-30T03:07:35.031Z,2.60
2022-10-30T03:10:05.840Z,2.40
2022-10-30T03:12:36.231Z,2.70
2022-10-30T03:15:06.841Z,2.58
2022-10-30T03:28:50.555Z,2.53
2022-10-30T03:31:21.706Z,2.90
2022-10-30T03:33:52.421Z,2.55
2022-10-30T03:36:22.762Z,2.58
2022-10-30T03:41:43.855Z,2.50
2022-10-30T03:44:14.161Z,2.42
2022-10-30T03:46:44.213Z,2.10
2022-10-30T03:49:14.241Z,2.53
2022-10-30T03:51:44.074Z,2.63
2022-10-30T03:57:05.079Z,2.45
2022-10-30T03:59:35.649Z,2.58
2022-10-30T04:02:06.134Z,2.50
2022-10-30T04:04:36.065Z,2.50
2022-10-30T04:07:06.043Z,2.60
2022-10-30T04:09:37.992Z,2.65
2022-10-30T04:12:08.930Z,2.50
2022-10-30T04:17:26.828Z,2.60
2022-10-30T04:20:05.159Z,2.58
2022-10-30T04:28:12.785Z,2.58
2022-10-30T04:33:29.795Z,2.60
2022-10-30T04:41:36.158Z,2.78
2022-10-30T04:44:07.098Z,2.38
2022-10-30T04:46:37.144Z,2.95
2022-10-30T04:49:07.502Z,2.53
2022-10-30T04:51:37.956Z,2.83
2022-10-30T04:54:07.815Z,2.72
2022-10-30T04:56:40.151Z,2.85
2022-10-30T04:59:10.498Z,3.00
2022-10-30T05:01:40.860Z,2.90
2022-10-30T05:06:58.443Z,2.75
2022-10-30T05:09:28.577Z,2.70
2022-10-30T05:14:47.684Z,2.70
2022-10-30T05:17:18.112Z,2.80
2022-10-30T05:19:47.736Z,3.20
2022-10-30T05:22:17.434Z,3.10
2022-10-30T05:24:47.054Z,2.75
2022-10-30T05:27:19.399Z,2.83
2022-10-30T05:32:36.357Z,2.80
2022-10-30T05:35:07.866Z,3.17
2022-10-30T05:37:38.062Z,3.28
2022-10-30T05:40:09.922Z,3.17
2022-10-30T05:48:24.547Z,2.70
2022-10-30T05:50:54.868Z,2.92
2022-10-30T05:53:25.655Z,2.78
2022-10-30T05:55:59.741Z,3.08
2022-10-30T05:58:32.101Z,3.00
2022-10-30T06:01:02.116Z,2.88
2022-10-30T06:03:33.198Z,2.63
2022-10-30T06:08:51.142Z,2.85
2022-10-30T06:11:21.489Z,2.80
2022-10-30T06:16:41.669Z,2.55
2022-10-30T06:21:59.925Z,2.83
2022-10-30T06:24:30.294Z,2.72
2022-10-30T06:27:01.119Z,2.80
2022-10-30T06:29:33.469Z,2.60
2022-10-30T06:32:06.686Z,2.55
2022-10-30T06:34:36.880Z,2.60
2022-10-30T06:37:07.527Z,2.72
2022-10-30T06:39:37.606Z,2.72
2022-10-30T06:42:08.277Z,3.13
2022-10-30T06:44:40.528Z,2.78
2022-10-30T06:47:11.366Z,2.78
2022-10-30T06:49:41.944Z,2.35
2022-10-30T06:52:12.255Z,2.67
2022-10-30T06:57:30.843Z,2.75
2022-10-30T07:00:03.444Z,2.75
2022-10-30T07:02:33.647Z,2.67
2022-10-30T07:10:39.601Z,2.72
2022-10-30T07:13:11.155Z,2.58
2022-10-30T07:15:44.041Z,2.80
2022-10-30T07:18:14.633Z,2.58
2022-10-30T07:20:44.991Z,2.67
2022-10-30T07:26:04.421Z,2.70
2022-10-30T07:28:35.042Z,2.78
2022-10-30T07:31:08.175Z,2.75
2022-10-30T07:36:26.460Z,2.42
2022-10-30T07:38:56.705Z,2.35
2022-10-30T07:41:27.638Z,2.30
2022-10-30T07:43:58.740Z,2.15
2022-10-30T07:46:31.164Z,2.22
2022-10-30T07:49:01.799Z,2.28
2022-10-30T07:51:31.826Z,2.15
2022-10-30T07:54:02.326Z,2.55
2022-10-30T07:56:32.889Z,2.17
2022-10-30T07:59:03.530Z,2.20
2022-10-30T08:01:35.222Z,2.58
2022-10-30T08:04:05.987Z,2.47
2022-10-30T08:09:24.200Z,2.28
2022-10-30T08:14:41.822Z,2.08
2022-10-30T08:17:13.566Z,2.33
2022-10-30T08:19:43.894Z,2.28
2022-10-30T08:22:14.973Z,2.47
2022-10-30T08:27:33.008Z,2.20
2022-10-30T08:30:04.582Z,2.28
2022-10-30T08:38:10.950Z,2.08
2022-10-30T08:40:40.976Z,2.63
2022-10-30T08:43:12.306Z,2.30
2022-10-30T08:45:42.865Z,2.20
2022-10-30T08:48:17.083Z,2.42
2022-10-30T08:53:35.198Z,2.30
2022-10-30T08:58:54.576Z,2.38
2022-10-30T09:07:06.380Z,2.20
2022-10-30T09:09:39.517Z,2.20
2022-10-30T09:14:57.680Z,2.40
2022-10-30T09:23:05.078Z,2.20
2022-10-30T09:25:35.592Z,2.03
2022-10-30T09:28:06.240Z,2.10
2022-10-30T09:30:36.664Z,2.30
2022-10-30T09:33:07.642Z,2.40
2022-10-30T09:35:39.648Z,2.13
2022-10-30T09:38:10.722Z,2.15
2022-10-30T09:44:24.421Z,2.22
2022-10-30T09:50:26.383Z,2.30
2022-10-30T09:53:17.099Z,2.25
2022-10-30T09:55:57.666Z,2.22
2022-10-30T09:58:41.981Z,2.30
2022-10-30T10:01:22.148Z,2.30
2022-10-30T10:04:08.066Z,2.40
2022-10-30T10:07:07.737Z,2.42
2022-10-30T10:10:31.475Z,2.35
2022-10-30T10:13:03.046Z,2.30
2022-10-30T10:15:44.897Z,2.40
2022-10-30T10:18:22.910Z,2.58
2022-10-30T10:21:05.567Z,2.70
2022-10-30T10:33:39.105Z,2.42
2022-10-30T10:36:46.851Z,2.28
2022-10-30T10:39:42.889Z,2.28
2022-10-30T10:42:29.386Z,2.53
2022-10-30T10:45:21.947Z,2.65
2022-10-30T10:48:24.247Z,2.70
2022-10-30T10:51:01.109Z,2.88
2022-10-30T10:53:42.661Z,2.83
2022-10-30T10:56:13.628Z,2.88
2022-10-30T10:58:54.403Z,2.97
2022-10-30T11:01:34.736Z,2.88
2022-10-30T11:04:17.419Z,2.70
2022-10-30T11:12:37.497Z,2.80
2022-10-30T11:18:16.960Z,2.47
2022-10-30T11:21:02.488Z,2.80
2022-10-30T11:23:51.454Z,2.88
2022-10-30T11:26:43.346Z,2.53
2022-10-30T11:29:18.484Z,2.60
2022-10-30T11:32:04.338Z,2.70
2022-10-30T11:34:46.745Z,2.65
2022-10-30T11:40:25.858Z,2.50
2022-10-30T11:45:53.326Z,2.85
2022-10-30T11:48:33.090Z,3.05
2022-10-30T11:51:05.216Z,3.03
2022-10-30T11:53:40.479Z,3.20
2022-10-30T11:56:19.313Z,3.10
2022-10-30T11:58:54.773Z,3.15
2022-10-30T12:01:28.949Z,2.72
2022-10-30T12:04:29.901Z,2.95
2022-10-30T12:07:20.525Z,2.67
2022-10-30T12:12:45.390Z,2.88
2022-10-30T12:15:30.263Z,2.80
2022-10-30T12:18:06.179Z,2.85
2022-10-30T12:20:42.681Z,2.90
2022-10-30T12:23:19.900Z,2.85
2022-10-30T12:28:42.609Z,2.80
2022-10-30T12:37:23.896Z,2.55
2022-10-30T12:40:04.697Z,2.47
2022-10-30T12:42:45.351Z,3.05
2022-10-30T12:45:21.999Z,2.90
2022-10-30T12:48:02.197Z,2.95
2022-10-30T12:50:43.217Z,2.70
2022-10-30T12:53:30.663Z,2.60
2022-10-30T12:56:10.065Z,2.75
2022-10-30T12:58:50.696Z,2.72
2022-10-30T13:01:30.633Z,2.72
2022-10-30T13:04:12.590Z,2.92
2022-10-30T13:10:04.903Z,2.40
2022-10-30T13:15:34.220Z,2.38
2022-10-30T13:21:26.111Z,2.50
2022-10-30T13:24:04.878Z,2.20
2022-10-30T13:26:47.578Z,2.20
2022-10-30T13:29:31.288Z,2.13
2022-10-30T13:32:25.560Z,2.70
2022-10-30T13:35:06.163Z,2.47
2022-10-30T13:37:48.538Z,2.22
2022-10-30T13:40:34.108Z,2.38
2022-10-30T13:43:25.325Z,2.30
2022-10-30T13:46:49.879Z,2.22
2022-10-30T13:49:44.351Z,2.15
2022-10-30T13:52:19.834Z,1.90
2022-10-30T14:01:16.148Z,2.05
2022-10-30T14:04:03.275Z,1.90
2022-10-30T14:06:49.405Z,2.17
2022-10-30T14:15:47.116Z,1.83
2022-10-30T14:18:46.895Z,1.90
2022-10-30T14:21:47.852Z,1.90
2022-10-30T14:27:20.601Z,1.75
2022-10-30T14:32:52.493Z,1.65
2022-10-30T14:35:42.637Z,2.00
2022-10-30T14:41:55.720Z,1.52
2022-10-30T14:45:05.570Z,1.70
2022-10-30T14:48:04.571Z,1.77
2022-10-30T14:50:59.227Z,1.83
2022-10-30T14:56:51.028Z,2.00
2022-10-30T14:59:33.703Z,1.88
2022-10-30T15:02:26.354Z,2.03
2022-10-30T15:05:33.843Z,1.80
2022-10-30T15:08:41.302Z,1.77
2022-10-30T15:14:48.569Z,1.45
2022-10-30T15:20:25.215Z,1.50
2022-10-30T15:22:59.349Z,1.48
2022-10-30T15:25:40.639Z,1.40
2022-10-30T15:31:06.238Z,1.50
2022-10-30T15:36:31.969Z,1.80
2022-10-30T15:39:12.599Z,1.70
2022-10-30T15:41:51.450Z,1.70
2022-10-30T15:47:20.171Z,1.60
2022-10-30T15:49:54.880Z,1.73
2022-10-30T15:52:27.931Z,2.10
2022-10-30T15:55:05.245Z,1.83
2022-10-30T16:00:38.989Z,1.80
2022-10-30T16:03:19.426Z,1.70
2022-10-30T16:08:47.293Z,1.70
2022-10-30T16:11:21.841Z,1.77
2022-10-30T16:13:56.194Z,1.50
2022-10-30T16:16:34.142Z,1.75
2022-10-30T16:19:08.162Z,1.70
2022-10-30T16:21:38.866Z,1.70
2022-10-30T16:24:11.701Z,1.77
2022-10-30T16:26:42.438Z,1.77
2022-10-30T16:29:27.006Z,1.70
2022-10-30T16:34:46.533Z,1.75
2022-10-30T16:37:22.413Z,2.08
2022-10-30T16:39:55.613Z,1.77
2022-10-30T16:42:29.303Z,1.70
2022-10-30T16:45:51.881Z,1.90
2022-10-30T16:54:20.874Z,1.70
2022-10-30T16:56:55.428Z,1.60
2022-10-30T17:02:32.002Z,1.80
2022-10-30T17:05:13.502Z,1.70
2022-10-30T17:07:57.946Z,1.63
2022-10-30T17:16:27.316Z,1.50
2022-10-30T17:19:03.017Z,1.83
2022-10-30T17:21:42.676Z,1.67
2022-10-30T17:24:26.125Z,1.60
2022-10-30T17:27:00.544Z,1.58
2022-10-30T17:38:25.079Z,1.65
2022-10-30T17:40:55.228Z,1.65
2022-10-30T17:43:29.507Z,1.75
2022-10-30T17:46:00.684Z,1.85
2022-10-30T17:51:22.377Z,1.55
2022-10-30T17:53:53.097Z,1.90
2022-10-30T17:56:29.860Z,2.00
2022-10-30T17:58:59.820Z,2.00
2022-10-30T18:09:59.526Z,1.75
2022-10-30T18:15:36.275Z,1.77
2022-10-30T18:18:08.191Z,1.58
2022-10-30T18:20:39.301Z,1.65
2022-10-30T18:26:18.104Z,1.70
2022-10-30T18:28:48.679Z,2.00
2022-10-30T18:31:21.948Z,1.70
2022-10-30T18:36:39.872Z,1.95
2022-10-30T18:39:14.222Z,1.65
2022-10-30T18:41:46.808Z,1.85
2022-10-30T18:44:18.352Z,1.70
2022-10-30T18:47:02.719Z,1.80
2022-10-30T18:49:33.942Z,1.75
2022-10-30T18:54:55.627Z,1.60
2022-10-30T18:57:27.044Z,1.60
2022-10-30T18:59:57.127Z,1.75
2022-10-30T19:02:32.653Z,1.88
2022-10-30T19:05:04.270Z,1.80
2022-10-30T19:07:35.352Z,1.70
2022-10-30T19:13:22.689Z,1.95
2022-10-30T19:16:00.308Z,1.90
2022-10-30T19:18:33.169Z,1.75
2022-10-30T19:21:06.513Z,1.70
2022-10-30T19:26:30.668Z,1.80
2022-10-30T19:29:01.092Z,1.83
2022-10-30T19:31:31.649Z,1.70
2022-10-30T19:34:01.716Z,1.80
2022-10-30T19:36:36.802Z,1.73
2022-10-30T19:39:13.554Z,1.83
2022-10-30T19:41:49.755Z,1.80
2022-10-30T19:44:30.015Z,1.85
2022-10-30T19:52:37.486Z,1.95
2022-10-30T19:55:10.077Z,1.65
2022-10-30T19:57:43.285Z,1.75
2022-10-30T20:00:20.496Z,1.63
2022-10-30T20:02:53.163Z,1.83
2022-10-30T20:05:26.441Z,1.70
2022-10-30T20:11:09.160Z,1.67
2022-10-30T20:13:42.011Z,2.08
2022-10-30T20:16:14.605Z,1.75
2022-10-30T20:18:44.455Z,1.90
2022-10-30T20:21:19.103Z,1.80
2022-10-30T20:23:50.803Z,1.80
2022-10-30T20:26:28.846Z,1.63
2022-10-30T20:29:04.939Z,1.80
2022-10-30T20:31:35.505Z,1.80
2022-10-30T20:34:06.978Z,1.67
2022-10-30T20:36:37.035Z,2.00
2022-10-30T20:44:53.879Z,1.90
2022-10-30T20:50:14.001Z,1.85
2022-10-30T20:52:52.610Z,1.88
2022-10-30T20:58:20.844Z,2.00
2022-10-30T21:03:43.924Z,2.00
2022-10-30T21:06:18.506Z,1.80
2022-10-30T21:08:50.480Z,2.00
2022-10-30T21:11:22.364Z,1.92
2022-10-30T21:13:56.781Z,1.80
2022-10-30T21:16:29.040Z,2.20
2022-10-30T21:18:59.704Z,1.70
2022-10-30T21:21:31.194Z,2.08
2022-10-30T21:24:01.039Z,1.88
2022-10-30T21:26:31.999Z,1.88
2022-10-30T21:29:02.800Z,1.90
2022-10-30T21:31:34.446Z,1.95
2022-10-30T21:34:04.314Z,1.85
2022-10-30T21:36:34.142Z,2.00
2022-10-30T21:39:06.949Z,1.73
2022-10-30T21:41:39.899Z,1.80
2022-10-30T21:44:10.937Z,1.98
2022-10-30T21:46:43.772Z,1.42
2022-10-30T21:49:16.864Z,1.75
2022-10-30T21:51:51.045Z,1.90
2022-10-30T21:59:46.073Z,1.90
2022-10-30T22:02:32.225Z,1.90
2022-10-30T22:05:02.087Z,1.90
2022-10-30T22:07:32.010Z,1.88
2022-10-30T22:10:01.975Z,1.90
2022-10-30T22:15:21.435Z,2.00
2022-10-30T22:20:49.655Z,1.80
2022-10-30T22:23:29.282Z,1.95
2022-10-30T22:26:00.384Z,1.92
2022-10-30T22:28:39.980Z,2.08
2022-10-30T22:31:13.495Z,2.05
2022-10-30T22:33:45.678Z,2.30
2022-10-30T22:36:22.458Z,2.30
2022-10-30T22:38:59.741Z,2.25
2022-10-30T22:41:44.553Z,2.10
2022-10-30T22:44:17.779Z,2.10
2022-10-30T22:46:50.369Z,2.30
2022-10-30T22:49:22.888Z,2.10
2022-10-30T22:51:52.773Z,2.38
2022-10-30T22:57:07.647Z,2.30
2022-10-30T22:59:37.962Z,2.13
2022-10-30T23:02:22.479Z,2.28
2022-10-30T23:04:53.796Z,1.98
2022-10-30T23:07:23.783Z,2.00
2022-10-30T23:09:53.736Z,2.08
2022-10-30T23:12:32.432Z,2.35
2022-10-30T23:15:02.327Z,2.10
2022-10-30T23:17:32.122Z,2.13
2022-10-30T23:20:05.187Z,2.30
2022-10-30T23:22:35.711Z,2.03
2022-10-30T23:25:05.937Z,2.17
2022-10-30T23:27:38.528Z,2.08
2022-10-30T23:30:10.664Z,2.03
2022-10-30T23:32:41.241Z,2.15
2022-10-30T23:35:12.781Z,2.30
2022-10-30T23:37:42.738Z,2.03
2022-10-30T23:40:16.425Z,2.20
2022-10-30T23:42:46.851Z,2.15
2022-10-30T23:45:16.892Z,1.95
2022-10-30T23:47:46.663Z,2.13
2022-10-30T23:50:20.768Z,2.40
2022-10-30T23:52:50.648Z,2.13
2022-10-30T23:55:20.498Z,2.10
2022-10-30T23:57:51.522Z,2.30
